createdAt,value
2019-02-16T00:00:09.728Z,103441.00
2019-02-16T00:01:46.542Z,103435.00
2019-02-16T00:03:21.699Z,103449.00
2019-02-16T00:04:56.918Z,103434.00
2019-02-16T00:06:32.419Z,103442.00
2019-02-16T00:08:07.967Z,103441.00
2019-02-16T00:09:43.472Z,103442.00
2019-02-16T00:11:19.033Z,103436.00
2019-02-16T00:12:54.275Z,103437.00
2019-02-16T00:14:29.487Z,103439.00
2019-02-16T00:16:05.789Z,103433.00
2019-02-16T00:17:41.012Z,103429.00
2019-02-16T00:19:16.231Z,103432.00
2019-02-16T00:20:51.451Z,103423.00
2019-02-16T00:22:26.671Z,103418.00
2019-02-16T00:24:01.889Z,103427.00
2019-02-16T00:25:37.111Z,103424.00
2019-02-16T00:27:12.592Z,103430.00
2019-02-16T00:28:47.816Z,103416.00
2019-02-16T00:30:23.270Z,103425.00
2019-02-16T00:31:58.434Z,103420.00
2019-02-16T00:33:33.654Z,103421.00
2019-02-16T00:35:08.873Z,103426.00
2019-02-16T00:36:44.056Z,103422.00
2019-02-16T00:38:19.247Z,103409.00
2019-02-16T00:39:54.442Z,103423.00
2019-02-16T00:41:29.657Z,103424.00
2019-02-16T00:43:04.889Z,103424.00
2019-02-16T00:44:40.129Z,103410.00
2019-02-16T00:46:15.377Z,103417.00
2019-02-16T00:47:50.537Z,103413.00
2019-02-16T00:49:25.757Z,103400.00
2019-02-16T00:51:01.266Z,103393.00
2019-02-16T00:52:36.469Z,103398.00
2019-02-16T00:54:11.685Z,103409.00
2019-02-16T00:55:47.078Z,103398.00
2019-02-16T00:57:22.265Z,103390.00
2019-02-16T00:58:58.420Z,103393.00
2019-02-16T01:00:33.895Z,103388.00
2019-02-16T01:02:09.059Z,103394.00
2019-02-16T01:03:44.262Z,103388.00
2019-02-16T01:05:19.478Z,103381.00
2019-02-16T01:06:54.699Z,103383.00
2019-02-16T01:08:29.916Z,103389.00
2019-02-16T01:10:07.930Z,103378.00
2019-02-16T01:11:43.153Z,103378.00
2019-02-16T01:13:18.367Z,103374.00
2019-02-16T01:14:53.588Z,103378.00
2019-02-16T01:16:28.784Z,103375.00
2019-02-16T01:18:03.996Z,103372.00
2019-02-16T01:19:39.243Z,103360.00
2019-02-16T01:21:22.530Z,103367.00
2019-02-16T01:22:51.304Z,103373.00
2019-02-16T01:24:26.549Z,103370.00
2019-02-16T01:26:01.735Z,103366.00
2019-02-16T01:27:37.245Z,103367.00
2019-02-16T01:29:12.691Z,103356.00
2019-02-16T01:30:48.133Z,103354.00
2019-02-16T01:32:23.610Z,103358.00
2019-02-16T01:33:58.819Z,103354.00
2019-02-16T01:35:34.045Z,103357.00
2019-02-16T01:37:09.273Z,103352.00
2019-02-16T01:38:44.482Z,103341.00
2019-02-16T01:40:19.779Z,103353.00
2019-02-16T01:41:55.011Z,103343.00
2019-02-16T01:43:30.590Z,103351.00
2019-02-16T01:45:07.985Z,103348.00
2019-02-16T01:46:44.430Z,103348.00
2019-02-16T01:48:19.648Z,103338.00
2019-02-16T01:49:55.812Z,103341.00
2019-02-16T01:51:32.173Z,103337.00
2019-02-16T01:53:07.577Z,103345.00
2019-02-16T01:54:42.794Z,103339.00
2019-02-16T01:56:18.012Z,103333.00
2019-02-16T01:57:53.238Z,103326.00
2019-02-16T01:59:28.452Z,103329.00
2019-02-16T02:01:03.676Z,103329.00
2019-02-16T02:02:39.342Z,103328.00
2019-02-16T02:04:14.885Z,103327.00
2019-02-16T02:05:50.101Z,103329.00
2019-02-16T02:07:25.293Z,103323.00
2019-02-16T02:09:01.504Z,103328.00
2019-02-16T02:10:39.477Z,103316.00
2019-02-16T02:12:14.830Z,103318.00
2019-02-16T02:13:50.045Z,103317.00
2019-02-16T02:15:25.550Z,103309.00
2019-02-16T02:17:00.748Z,103316.00
2019-02-16T02:18:35.967Z,103310.00
2019-02-16T02:20:11.171Z,103313.00
2019-02-16T02:21:46.374Z,103311.00
2019-02-16T02:23:21.537Z,103311.00
2019-02-16T02:24:56.756Z,103310.00
2019-02-16T02:26:31.946Z,103303.00
2019-02-16T02:28:07.118Z,103309.00
2019-02-16T02:29:42.333Z,103310.00
2019-02-16T02:31:17.547Z,103311.00
2019-02-16T02:32:53.039Z,103308.00
2019-02-16T02:34:28.257Z,103310.00
2019-02-16T02:36:03.476Z,103303.00
2019-02-16T02:37:39.594Z,103309.00
2019-02-16T02:39:15.803Z,103314.00
2019-02-16T02:40:50.995Z,103306.00
2019-02-16T02:42:26.162Z,103306.00
2019-02-16T02:44:01.373Z,103301.00
2019-02-16T02:45:41.720Z,103296.00
2019-02-16T02:47:16.945Z,103309.00
2019-02-16T02:48:52.161Z,103299.00
2019-02-16T02:50:27.384Z,103305.00
2019-02-16T02:52:02.601Z,103300.00
2019-02-16T02:53:37.831Z,103298.00
2019-02-16T02:55:13.046Z,103294.00
2019-02-16T02:56:48.260Z,103291.00
2019-02-16T02:58:23.805Z,103287.00
2019-02-16T02:59:58.984Z,103289.00
2019-02-16T03:01:34.558Z,103290.00
2019-02-16T03:03:09.944Z,103294.00
2019-02-16T03:04:45.167Z,103288.00
2019-02-16T03:06:20.395Z,103296.00
2019-02-16T03:07:55.600Z,103297.00
2019-02-16T03:09:30.823Z,103288.00
2019-02-16T03:11:06.043Z,103289.00
2019-02-16T03:12:41.240Z,103277.00
2019-02-16T03:14:16.458Z,103281.00
2019-02-16T03:15:51.680Z,103291.00
2019-02-16T03:17:26.923Z,103282.00
2019-02-16T03:19:02.385Z,103277.00
2019-02-16T03:20:37.631Z,103283.00
2019-02-16T03:22:12.849Z,103278.00
2019-02-16T03:23:48.067Z,103278.00
2019-02-16T03:25:23.300Z,103274.00
2019-02-16T03:27:06.061Z,103278.00
2019-02-16T03:28:51.455Z,103275.00
2019-02-16T03:30:45.844Z,103278.00
2019-02-16T03:32:47.240Z,103275.00
2019-02-16T03:34:47.669Z,103281.00
2019-02-16T03:36:49.623Z,103277.00
2019-02-16T03:38:42.098Z,103270.00
2019-02-16T03:40:17.622Z,103269.00
2019-02-16T03:41:52.829Z,103269.00
2019-02-16T03:43:28.048Z,103275.00
2019-02-16T03:45:03.535Z,103268.00
2019-02-16T03:46:38.758Z,103264.00
2019-02-16T03:48:13.936Z,103261.00
2019-02-16T03:49:49.464Z,103271.00
2019-02-16T03:51:24.963Z,103275.00
2019-02-16T03:53:00.182Z,103256.00
2019-02-16T03:54:35.391Z,103265.00
2019-02-16T03:56:10.613Z,103260.00
2019-02-16T03:57:45.828Z,103258.00
2019-02-16T03:59:21.033Z,103263.00
2019-02-16T04:00:56.267Z,103266.00
2019-02-16T04:02:31.740Z,103256.00
2019-02-16T04:04:06.988Z,103257.00
2019-02-16T04:05:42.210Z,103252.00
2019-02-16T04:07:17.685Z,103251.00
2019-02-16T04:08:52.912Z,103257.00
2019-02-16T04:10:28.116Z,103248.00
2019-02-16T04:12:03.617Z,103251.00
2019-02-16T04:13:38.794Z,103244.00
2019-02-16T04:15:14.285Z,103246.00
2019-02-16T04:16:49.468Z,103247.00
2019-02-16T04:18:24.669Z,103248.00
2019-02-16T04:19:59.891Z,103256.00
2019-02-16T04:21:35.080Z,103248.00
2019-02-16T04:23:10.620Z,103244.00
2019-02-16T04:24:45.814Z,103255.00
2019-02-16T04:26:21.034Z,103249.00
2019-02-16T04:27:56.256Z,103246.00
2019-02-16T04:29:31.480Z,103243.00
2019-02-16T04:31:06.701Z,103239.00
2019-02-16T04:32:41.914Z,103248.00
2019-02-16T04:34:17.113Z,103240.00
2019-02-16T04:35:52.331Z,103242.00
2019-02-16T04:37:27.550Z,103242.00
2019-02-16T04:39:04.613Z,103248.00
2019-02-16T04:40:40.982Z,103242.00
2019-02-16T04:42:16.469Z,103237.00
2019-02-16T04:43:51.689Z,103240.00
2019-02-16T04:45:27.168Z,103235.00
2019-02-16T04:47:02.400Z,103246.00
2019-02-16T04:48:37.618Z,103243.00
2019-02-16T04:50:12.837Z,103229.00
2019-02-16T04:51:48.285Z,103235.00
2019-02-16T04:53:23.555Z,103233.00
2019-02-16T04:54:58.766Z,103227.00
2019-02-16T04:56:34.413Z,103235.00
2019-02-16T04:58:09.654Z,103228.00
2019-02-16T04:59:44.874Z,103229.00
2019-02-16T05:01:20.089Z,103232.00
2019-02-16T05:02:56.680Z,103225.00
2019-02-16T05:04:32.219Z,103225.00
2019-02-16T05:06:07.749Z,103209.00
2019-02-16T05:07:42.949Z,103213.00
2019-02-16T05:09:18.176Z,103213.00
2019-02-16T05:10:53.391Z,103215.00
2019-02-16T05:12:28.614Z,103210.00
2019-02-16T05:14:04.122Z,103206.00
2019-02-16T05:15:39.319Z,103214.00
2019-02-16T05:17:14.533Z,103206.00
2019-02-16T05:18:49.755Z,103210.00
2019-02-16T05:20:24.976Z,103210.00
2019-02-16T05:22:00.181Z,103211.00
2019-02-16T05:23:35.412Z,103216.00
2019-02-16T05:25:11.366Z,103210.00
2019-02-16T05:26:46.570Z,103215.00
2019-02-16T05:28:21.771Z,103213.00
2019-02-16T05:29:57.367Z,103211.00
2019-02-16T05:31:32.588Z,103208.00
2019-02-16T05:33:07.807Z,103208.00
2019-02-16T05:34:43.030Z,103210.00
2019-02-16T05:36:18.243Z,103208.00
2019-02-16T05:37:53.467Z,103204.00
2019-02-16T05:39:28.688Z,103213.00
2019-02-16T05:41:03.909Z,103209.00
2019-02-16T05:42:39.416Z,103205.00
2019-02-16T05:44:14.701Z,103204.00
2019-02-16T05:45:49.991Z,103212.00
2019-02-16T05:47:25.250Z,103212.00
2019-02-16T05:49:00.453Z,103213.00
2019-02-16T05:50:35.670Z,103207.00
2019-02-16T05:52:11.705Z,103208.00
2019-02-16T05:53:46.920Z,103207.00
2019-02-16T05:55:22.140Z,103210.00
2019-02-16T05:56:57.359Z,103211.00
2019-02-16T05:58:32.589Z,103210.00
2019-02-16T06:00:11.894Z,103215.00
2019-02-16T06:01:53.599Z,103210.00
2019-02-16T06:03:24.211Z,103213.00
2019-02-16T06:05:00.411Z,103216.00
2019-02-16T06:06:35.615Z,103211.00
2019-02-16T06:08:11.735Z,103214.00
2019-02-16T06:09:46.952Z,103208.00
2019-02-16T06:11:22.172Z,103211.00
2019-02-16T06:12:57.389Z,103209.00
2019-02-16T06:14:32.612Z,103211.00
2019-02-16T06:16:07.826Z,103213.00
2019-02-16T06:17:43.041Z,103209.00
2019-02-16T06:19:18.266Z,103207.00
2019-02-16T06:20:53.489Z,103210.00
2019-02-16T06:22:28.757Z,103207.00
2019-02-16T06:24:03.930Z,103212.00
2019-02-16T06:25:39.145Z,103207.00
2019-02-16T06:27:14.365Z,103210.00
2019-02-16T06:28:49.581Z,103202.00
2019-02-16T06:30:24.824Z,103205.00
2019-02-16T06:32:00.027Z,103201.00
2019-02-16T06:33:35.249Z,103200.00
2019-02-16T06:35:12.081Z,103198.00
2019-02-16T06:36:47.262Z,103207.00
2019-02-16T06:38:22.450Z,103204.00
2019-02-16T06:39:57.644Z,103211.00
2019-02-16T06:41:33.154Z,103199.00
2019-02-16T06:43:08.687Z,103198.00
2019-02-16T06:44:45.196Z,103209.00
2019-02-16T06:46:20.414Z,103202.00
2019-02-16T06:47:55.598Z,103210.00
2019-02-16T06:49:30.786Z,103207.00
2019-02-16T06:51:05.984Z,103205.00
2019-02-16T06:52:42.300Z,103211.00
2019-02-16T06:54:17.502Z,103217.00
2019-02-16T06:55:54.342Z,103213.00
2019-02-16T06:57:30.463Z,103215.00
2019-02-16T06:59:05.730Z,103222.00
2019-02-16T07:00:40.953Z,103222.00
2019-02-16T07:02:16.121Z,103218.00
2019-02-16T07:03:51.623Z,103222.00
2019-02-16T07:05:26.832Z,103222.00
2019-02-16T07:07:02.043Z,103227.00
2019-02-16T07:08:37.262Z,103227.00
2019-02-16T07:10:12.495Z,103230.00
2019-02-16T07:11:47.684Z,103225.00
2019-02-16T07:13:22.857Z,103225.00
2019-02-16T07:14:58.052Z,103226.00
2019-02-16T07:16:34.890Z,103223.00
2019-02-16T07:18:14.709Z,103227.00
2019-02-16T07:19:51.279Z,103225.00
2019-02-16T07:21:26.763Z,103222.00
2019-02-16T07:23:01.982Z,103218.00
2019-02-16T07:24:37.209Z,103222.00
2019-02-16T07:26:12.467Z,103230.00
2019-02-16T07:27:47.671Z,103216.00
2019-02-16T07:29:22.891Z,103215.00
2019-02-16T07:30:58.105Z,103221.00
2019-02-16T07:32:33.269Z,103219.00
2019-02-16T07:34:08.452Z,103222.00
2019-02-16T07:35:43.636Z,103227.00
2019-02-16T07:37:18.812Z,103222.00
2019-02-16T07:38:54.002Z,103228.00
2019-02-16T07:40:29.244Z,103217.00
2019-02-16T07:42:04.447Z,103227.00
2019-02-16T07:43:50.036Z,103224.00
2019-02-16T07:45:40.996Z,103231.00
2019-02-16T07:47:20.502Z,103226.00
2019-02-16T07:48:57.573Z,103237.00
2019-02-16T07:50:34.398Z,103237.00
2019-02-16T07:52:17.118Z,103241.00
2019-02-16T07:53:59.629Z,103241.00
2019-02-16T07:55:39.539Z,103245.00
2019-02-16T07:57:23.404Z,103246.00
2019-02-16T07:59:00.277Z,103244.00
2019-02-16T08:00:43.062Z,103243.00
2019-02-16T08:02:22.744Z,103249.00
2019-02-16T08:03:59.635Z,103256.00
2019-02-16T08:05:36.468Z,103258.00
2019-02-16T08:07:20.085Z,103263.00
2019-02-16T08:09:13.455Z,103242.00
2019-02-16T08:10:52.975Z,103252.00
2019-02-16T08:12:46.481Z,103262.00
2019-02-16T08:14:26.393Z,103259.00
2019-02-16T08:16:08.978Z,103256.00
2019-02-16T08:17:54.869Z,103259.00
2019-02-16T08:19:31.876Z,103255.00
2019-02-16T08:21:14.721Z,103254.00
2019-02-16T08:22:51.562Z,103266.00
2019-02-16T08:24:44.702Z,103268.00
2019-02-16T08:26:21.606Z,103262.00
2019-02-16T08:27:58.461Z,103265.00
2019-02-16T08:29:37.926Z,103270.00
2019-02-16T08:31:17.976Z,103271.00
2019-02-16T08:32:54.824Z,103266.00
2019-02-16T08:34:49.734Z,103253.00
2019-02-16T08:36:41.963Z,103261.00
2019-02-16T08:38:19.182Z,103263.00
2019-02-16T08:39:58.715Z,103273.00
2019-02-16T08:41:44.730Z,103266.00
2019-02-16T08:43:30.582Z,103266.00
2019-02-16T08:45:14.990Z,103260.00
2019-02-16T08:47:08.461Z,103252.00
2019-02-16T08:48:48.086Z,103262.00
2019-02-16T08:50:24.916Z,103261.00
2019-02-16T08:52:04.664Z,103267.00
2019-02-16T08:53:49.820Z,103264.00
2019-02-16T08:55:23.299Z,103257.00
2019-02-16T08:57:16.623Z,103258.00
2019-02-16T08:59:02.535Z,103253.00
2019-02-16T09:00:39.374Z,103253.00
2019-02-16T09:02:16.262Z,103256.00
2019-02-16T09:03:53.099Z,103257.00
2019-02-16T09:05:46.336Z,103266.00
2019-02-16T09:07:32.190Z,103258.00
2019-02-16T09:09:12.095Z,103248.00
2019-02-16T09:10:48.974Z,103249.00
2019-02-16T09:12:28.820Z,103246.00
2019-02-16T09:14:14.479Z,103250.00
2019-02-16T09:15:54.020Z,103247.00
2019-02-16T09:17:30.926Z,103247.00
2019-02-16T09:19:08.007Z,103254.00
2019-02-16T09:20:45.347Z,103242.00
2019-02-16T09:22:22.548Z,103244.00
2019-02-16T09:24:03.073Z,103253.00
2019-02-16T09:25:56.659Z,103252.00
2019-02-16T09:27:42.540Z,103243.00
2019-02-16T09:29:25.596Z,103245.00
2019-02-16T09:31:02.401Z,103243.00
2019-02-16T09:32:39.401Z,103248.00
2019-02-16T09:34:19.388Z,103255.00
2019-02-16T09:36:02.540Z,103251.00
2019-02-16T09:37:42.339Z,103243.00
2019-02-16T09:39:21.999Z,103252.00
2019-02-16T09:40:58.818Z,103250.00
2019-02-16T09:42:38.707Z,103244.00
2019-02-16T09:44:18.243Z,103243.00
2019-02-16T09:45:58.071Z,103249.00
2019-02-16T09:47:34.944Z,103254.00
2019-02-16T09:49:11.824Z,103257.00
2019-02-16T09:50:48.670Z,103261.00
2019-02-16T09:52:25.520Z,103253.00
2019-02-16T09:54:14.404Z,103253.00
2019-02-16T09:55:51.255Z,103255.00
2019-02-16T09:57:34.001Z,103251.00
2019-02-16T09:59:10.864Z,103235.00
2019-02-16T10:00:56.802Z,103237.00
2019-02-16T10:02:39.678Z,103248.00
2019-02-16T10:04:16.555Z,103247.00
2019-02-16T10:05:53.714Z,103250.00
2019-02-16T10:07:30.686Z,103250.00
2019-02-16T10:09:10.673Z,103239.00
2019-02-16T10:10:50.145Z,103235.00
2019-02-16T10:12:29.933Z,103237.00
2019-02-16T10:14:06.767Z,103235.00
2019-02-16T10:15:43.654Z,103230.00
2019-02-16T10:17:20.568Z,103235.00
2019-02-16T10:19:03.092Z,103231.00
2019-02-16T10:20:48.942Z,103231.00
2019-02-16T10:22:31.797Z,103233.00
2019-02-16T10:24:17.376Z,103235.00
2019-02-16T10:25:47.144Z,103235.00
2019-02-16T10:27:27.174Z,103235.00
2019-02-16T10:29:20.146Z,103237.00
2019-02-16T10:31:02.910Z,103239.00
2019-02-16T10:32:56.125Z,103229.00
2019-02-16T10:34:41.784Z,103229.00
2019-02-16T10:36:18.624Z,103232.00
2019-02-16T10:38:10.561Z,103231.00
2019-02-16T10:40:05.503Z,103222.00
2019-02-16T10:41:51.623Z,103233.00
2019-02-16T10:43:40.804Z,103233.00
2019-02-16T10:45:33.759Z,103237.00
2019-02-16T10:47:13.724Z,103229.00
2019-02-16T10:48:50.658Z,103227.00
2019-02-16T10:50:27.543Z,103226.00
2019-02-16T10:52:04.696Z,103228.00
2019-02-16T10:53:56.614Z,103217.00
2019-02-16T10:55:42.578Z,103230.00
2019-02-16T10:57:36.074Z,103228.00
2019-02-16T10:59:31.269Z,103232.00
2019-02-16T11:01:08.161Z,103227.00
2019-02-16T11:02:49.540Z,103224.00
2019-02-16T11:04:38.111Z,103218.00
2019-02-16T11:06:13.547Z,103223.00
2019-02-16T11:07:50.663Z,103218.00
2019-02-16T11:09:27.516Z,103221.00
2019-02-16T11:11:06.964Z,103221.00
2019-02-16T11:12:55.866Z,103217.00
2019-02-16T11:14:41.526Z,103218.00
2019-02-16T11:16:25.669Z,103229.00
2019-02-16T11:18:20.669Z,103212.00
2019-02-16T11:20:09.642Z,103220.00
2019-02-16T11:21:49.362Z,103216.00
2019-02-16T11:23:29.150Z,103220.00
2019-02-16T11:25:13.157Z,103210.00
2019-02-16T11:26:50.075Z,103212.00
2019-02-16T11:28:43.111Z,103212.00
2019-02-16T11:30:20.935Z,103221.00
2019-02-16T11:31:57.791Z,103210.00
2019-02-16T11:33:34.633Z,103213.00
2019-02-16T11:35:15.508Z,103208.00
2019-02-16T11:36:52.359Z,103210.00
2019-02-16T11:38:47.506Z,103208.00
2019-02-16T11:40:32.954Z,103207.00
2019-02-16T11:42:21.926Z,103207.00
2019-02-16T11:44:10.261Z,103195.00
2019-02-16T11:45:47.337Z,103193.00
2019-02-16T11:47:33.356Z,103195.00
2019-02-16T11:49:10.496Z,103196.00
2019-02-16T11:50:47.362Z,103195.00
2019-02-16T11:52:24.244Z,103191.00
2019-02-16T11:54:16.208Z,103182.00
2019-02-16T11:56:09.116Z,103180.00
2019-02-16T11:57:47.140Z,103179.00
2019-02-16T11:59:24.278Z,103177.00
2019-02-16T12:01:01.183Z,103180.00
2019-02-16T12:02:40.566Z,103170.00
2019-02-16T12:04:20.337Z,103177.00
2019-02-16T12:05:57.301Z,103174.00
2019-02-16T12:07:36.899Z,103171.00
2019-02-16T12:09:13.803Z,103175.00
2019-02-16T12:11:07.180Z,103165.00
2019-02-16T12:12:46.658Z,103169.00
2019-02-16T12:14:41.611Z,103168.00
2019-02-16T12:16:18.476Z,103147.00
2019-02-16T12:17:58.036Z,103140.00
2019-02-16T12:19:43.947Z,103155.00
2019-02-16T12:21:20.832Z,103151.00
2019-02-16T12:23:09.504Z,103147.00
2019-02-16T12:25:05.427Z,103136.00
2019-02-16T12:26:43.089Z,103133.00
2019-02-16T12:28:22.548Z,103131.00
2019-02-16T12:29:59.649Z,103130.00
2019-02-16T12:31:54.455Z,103128.00
2019-02-16T12:33:31.271Z,103122.00
2019-02-16T12:35:24.713Z,103128.00
2019-02-16T12:37:07.398Z,103109.00
2019-02-16T12:38:47.207Z,103115.00
2019-02-16T12:40:24.076Z,103102.00
2019-02-16T12:42:00.950Z,103097.00
2019-02-16T12:43:40.440Z,103103.00
2019-02-16T12:45:26.113Z,103096.00
2019-02-16T12:47:02.953Z,103101.00
2019-02-16T12:48:39.777Z,103094.00
2019-02-16T12:50:20.084Z,103094.00
2019-02-16T12:51:59.680Z,103083.00
2019-02-16T12:53:48.231Z,103091.00
2019-02-16T12:55:31.235Z,103091.00
2019-02-16T12:57:08.053Z,103089.00
2019-02-16T12:58:44.944Z,103081.00
2019-02-16T13:00:22.109Z,103085.00
2019-02-16T13:02:11.739Z,103084.00
2019-02-16T13:04:00.380Z,103080.00
2019-02-16T13:05:53.116Z,103085.00
2019-02-16T13:07:29.985Z,103076.00
2019-02-16T13:09:10.643Z,103072.00
2019-02-16T13:10:50.515Z,103074.00
2019-02-16T13:12:43.589Z,103075.00
2019-02-16T13:14:22.850Z,103074.00
2019-02-16T13:15:59.743Z,103074.00
2019-02-16T13:17:39.486Z,103075.00
2019-02-16T13:19:16.347Z,103074.00
2019-02-16T13:20:58.901Z,103079.00
2019-02-16T13:22:35.754Z,103074.00
2019-02-16T13:24:12.576Z,103065.00
2019-02-16T13:26:05.338Z,103070.00
2019-02-16T13:27:59.093Z,103073.00
2019-02-16T13:29:35.933Z,103069.00
2019-02-16T13:31:24.812Z,103067.00
2019-02-16T13:33:08.333Z,103057.00
2019-02-16T13:34:54.912Z,103052.00
2019-02-16T13:36:31.751Z,103053.00
2019-02-16T13:42:50.211Z,103049.00
2019-02-16T13:44:29.492Z,103042.00
2019-02-16T13:46:24.747Z,103049.00
2019-02-16T13:48:07.221Z,103053.00
2019-02-16T13:49:43.904Z,103060.00
2019-02-16T13:51:32.966Z,103049.00
2019-02-16T13:53:09.799Z,103048.00
2019-02-16T13:54:46.645Z,103054.00
2019-02-16T13:56:39.488Z,103046.00
2019-02-16T13:58:16.325Z,103049.00
2019-02-16T13:59:56.362Z,103039.00
2019-02-16T14:01:49.969Z,103028.00
2019-02-16T14:03:43.192Z,103041.00
2019-02-16T14:05:36.795Z,103036.00
2019-02-16T14:07:29.616Z,103030.00
2019-02-16T14:09:09.498Z,103035.00
2019-02-16T14:10:48.771Z,103035.00
2019-02-16T14:12:26.010Z,103035.00
2019-02-16T14:14:08.572Z,103038.00
2019-02-16T14:15:47.901Z,103036.00
2019-02-16T14:17:33.721Z,103030.00
2019-02-16T14:19:08.924Z,103024.00
2019-02-16T14:20:44.385Z,103026.00
2019-02-16T14:22:19.587Z,103027.00
2019-02-16T14:23:54.860Z,103026.00
2019-02-16T14:25:31.695Z,103015.00
2019-02-16T14:27:06.881Z,103019.00
2019-02-16T14:28:42.198Z,103014.00
2019-02-16T14:30:17.422Z,103013.00
2019-02-16T14:31:52.892Z,103012.00
2019-02-16T14:33:28.370Z,103011.00
2019-02-16T14:35:03.955Z,103012.00
2019-02-16T14:36:39.148Z,103012.00
2019-02-16T14:40:55.950Z,103002.00
2019-02-16T14:42:35.185Z,103003.00
2019-02-16T14:44:10.491Z,103005.00
2019-02-16T14:45:46.171Z,102997.00
2019-02-16T14:47:21.586Z,103005.00
2019-02-16T14:48:56.851Z,103013.00
2019-02-16T14:50:32.119Z,103011.00
2019-02-16T14:52:07.616Z,103014.00
2019-02-16T14:53:42.779Z,103017.00
2019-02-16T14:55:19.293Z,103019.00
2019-02-16T14:56:54.656Z,103021.00
2019-02-16T14:58:31.628Z,103015.00
2019-02-16T15:00:10.810Z,103022.00
2019-02-16T15:01:46.375Z,103017.00
2019-02-16T15:03:21.601Z,103016.00
2019-02-16T15:04:58.590Z,103024.00
2019-02-16T15:06:33.823Z,103024.00
2019-02-16T15:08:09.030Z,103021.00
2019-02-16T15:09:44.198Z,103023.00
2019-02-16T15:11:19.726Z,103021.00
2019-02-16T15:12:54.797Z,103014.00
2019-02-16T15:14:29.918Z,103023.00
2019-02-16T15:16:05.342Z,103016.00
2019-02-16T15:17:40.640Z,103015.00
2019-02-16T15:19:16.006Z,103016.00
2019-02-16T15:20:51.221Z,103011.00
2019-02-16T15:22:28.094Z,103019.00
2019-02-16T15:24:03.651Z,103017.00
2019-02-16T15:25:38.881Z,103018.00
2019-02-16T15:27:16.134Z,103025.00
2019-02-16T15:28:52.990Z,103016.00
2019-02-16T15:30:28.225Z,103027.00
2019-02-16T15:32:03.472Z,103018.00
2019-02-16T15:33:38.903Z,103020.00
2019-02-16T15:35:14.519Z,103015.00
2019-02-16T15:36:49.742Z,103016.00
2019-02-16T15:38:29.282Z,103012.00
2019-02-16T15:40:05.765Z,103026.00
2019-02-16T15:41:41.042Z,103011.00
2019-02-16T15:43:16.338Z,103015.00
2019-02-16T15:44:51.596Z,103017.00
2019-02-16T15:46:29.596Z,103007.00
2019-02-16T15:48:04.739Z,103020.00
2019-02-16T15:49:41.159Z,103014.00
2019-02-16T15:51:18.571Z,103011.00
2019-02-16T15:52:53.800Z,103012.00
2019-02-16T15:54:31.026Z,103011.00
2019-02-16T15:56:10.547Z,103010.00
2019-02-16T15:57:43.289Z,103008.00
2019-02-16T15:59:18.552Z,103007.00
2019-02-16T16:00:53.817Z,103014.00
2019-02-16T16:02:30.784Z,103013.00
2019-02-16T16:04:06.084Z,103013.00
2019-02-16T16:05:41.404Z,103011.00
2019-02-16T16:07:16.653Z,103014.00
2019-02-16T16:08:56.292Z,103012.00
2019-02-16T16:10:34.267Z,103012.00
2019-02-16T16:12:13.918Z,103011.00
2019-02-16T16:14:09.043Z,103009.00
2019-02-16T16:16:02.934Z,103009.00
2019-02-16T16:17:54.854Z,103008.00
2019-02-16T16:19:33.391Z,103001.00
2019-02-16T16:21:10.341Z,103001.00
2019-02-16T16:22:49.507Z,103002.00
2019-02-16T16:24:42.808Z,102997.00
2019-02-16T16:26:19.838Z,103006.00
2019-02-16T16:28:05.285Z,103003.00
2019-02-16T16:29:44.784Z,103001.00
2019-02-16T16:31:24.614Z,103009.00
2019-02-16T16:33:17.960Z,103007.00
2019-02-16T16:34:54.840Z,103013.00
2019-02-16T16:36:37.728Z,103008.00
2019-02-16T16:38:17.469Z,103017.00
2019-02-16T16:39:54.315Z,103012.00
2019-02-16T16:41:32.277Z,103006.00
2019-02-16T16:43:12.077Z,103002.00
2019-02-16T16:44:54.589Z,103008.00
2019-02-16T16:46:34.252Z,103002.00
2019-02-16T16:48:11.153Z,103007.00
2019-02-16T16:49:48.036Z,103010.00
2019-02-16T16:51:30.964Z,103013.00
2019-02-16T16:53:07.847Z,103013.00
2019-02-16T16:55:00.799Z,103014.00
2019-02-16T16:56:37.848Z,103012.00
2019-02-16T16:58:17.813Z,103013.00
2019-02-16T17:00:03.733Z,103008.00
2019-02-16T17:01:41.671Z,103015.00
2019-02-16T17:03:35.501Z,103016.00
2019-02-16T17:05:12.475Z,103008.00
2019-02-16T17:07:05.500Z,103003.00
2019-02-16T17:08:42.497Z,102999.00
2019-02-16T17:10:34.652Z,103014.00
2019-02-16T17:12:34.866Z,103010.00
2019-02-16T17:14:31.713Z,103009.00
2019-02-16T17:16:17.252Z,103004.00
2019-02-16T17:18:13.715Z,103008.00
2019-02-16T17:19:47.395Z,102998.00
2019-02-16T17:21:43.571Z,102951.00
2019-02-16T17:23:22.198Z,102998.00
2019-02-16T17:25:04.911Z,102998.00
2019-02-16T17:26:50.473Z,103000.00
2019-02-16T17:28:34.969Z,102993.00
2019-02-16T17:30:18.428Z,102997.00
2019-02-16T17:33:59.086Z,102989.00
2019-02-16T17:35:44.677Z,102992.00
2019-02-16T17:37:24.348Z,103004.00
2019-02-16T17:39:03.800Z,103001.00
2019-02-16T17:40:40.643Z,102996.00
2019-02-16T17:42:33.771Z,102988.00
2019-02-16T17:44:10.690Z,102987.00
2019-02-16T17:45:47.634Z,102992.00
2019-02-16T17:47:24.538Z,102990.00
2019-02-16T17:49:10.490Z,102989.00
2019-02-16T17:50:50.605Z,102997.00
2019-02-16T17:52:30.316Z,103000.00
2019-02-16T17:54:10.172Z,102996.00
2019-02-16T17:55:51.929Z,102995.00
2019-02-16T17:57:44.950Z,102992.00
2019-02-16T17:59:36.804Z,102992.00
2019-02-16T18:01:32.107Z,102992.00
2019-02-16T18:03:21.042Z,103000.00
2019-02-16T18:05:10.054Z,102985.00
2019-02-16T18:06:51.079Z,102983.00
2019-02-16T18:08:34.860Z,102991.00
2019-02-16T18:10:11.764Z,102992.00
2019-02-16T18:11:48.662Z,102996.00
2019-02-16T18:13:41.912Z,102994.00
2019-02-16T18:15:21.731Z,103002.00
2019-02-16T18:17:18.194Z,102991.00
2019-02-16T18:19:10.688Z,102987.00
2019-02-16T18:20:51.106Z,102986.00
2019-02-16T18:22:30.849Z,102991.00
2019-02-16T18:24:16.671Z,102991.00
2019-02-16T18:25:57.221Z,102991.00
2019-02-16T18:27:37.269Z,102987.00
2019-02-16T18:29:14.600Z,102993.00
2019-02-16T18:31:06.584Z,102988.00
2019-02-16T18:32:46.410Z,102990.00
2019-02-16T18:34:26.069Z,102991.00
2019-02-16T18:36:03.457Z,102987.00
2019-02-16T18:37:43.210Z,102984.00
2019-02-16T18:39:20.265Z,102988.00
2019-02-16T18:41:04.824Z,102992.00
2019-02-16T18:42:44.616Z,102997.00
2019-02-16T18:44:39.516Z,102994.00
2019-02-16T18:46:22.072Z,103003.00
2019-02-16T18:48:04.702Z,102994.00
2019-02-16T18:49:59.688Z,103005.00
2019-02-16T18:51:45.240Z,102994.00
2019-02-16T18:53:25.313Z,102993.00
2019-02-16T18:55:19.872Z,102996.00
2019-02-16T18:57:07.202Z,102994.00
2019-02-16T18:58:44.088Z,102998.00
2019-02-16T19:00:21.000Z,102998.00